sensor_id;sensor_type;location;lat;lon;timestamp;temperature;humidity
32139;DHT22;18644;48.700;9.210;2023-06-24T00:02:24;17.80;51.80
32139;DHT22;18644;48.700;9.210;2023-06-24T00:04:51;17.70;51.90
32139;DHT22;18644;48.700;9.210;2023-06-24T00:07:18;17.70;52.00
32139;DHT22;18644;48.700;9.210;2023-06-24T00:09:47;17.60;52.20
32139;DHT22;18644;48.700;9.210;2023-06-24T00:12:14;17.60;52.30
32139;DHT22;18644;48.700;9.210;2023-06-24T00:14:44;17.50;52.20
32139;DHT22;18644;48.700;9.210;2023-06-24T00:17:12;17.50;52.40
32139;DHT22;18644;48.700;9.210;2023-06-24T00:19:40;17.40;52.40
32139;DHT22;18644;48.700;9.210;2023-06-24T00:22:07;17.40;52.50
32139;DHT22;18644;48.700;9.210;2023-06-24T00:24:34;17.40;52.50
32139;DHT22;18644;48.700;9.210;2023-06-24T00:27:01;17.30;52.70
32139;DHT22;18644;48.700;9.210;2023-06-24T00:29:28;17.30;52.80
32139;DHT22;18644;48.700;9.210;2023-06-24T00:31:55;17.20;52.90
32139;DHT22;18644;48.700;9.210;2023-06-24T00:34:22;17.20;53.10
32139;DHT22;18644;48.700;9.210;2023-06-24T00:36:50;17.20;53.20
32139;DHT22;18644;48.700;9.210;2023-06-24T00:39:17;17.20;53.40
32139;DHT22;18644;48.700;9.210;2023-06-24T00:41:46;17.10;53.50
32139;DHT22;18644;48.700;9.210;2023-06-24T00:44:13;17.10;53.50
32139;DHT22;18644;48.700;9.210;2023-06-24T00:46:40;17.00;53.50
32139;DHT22;18644;48.700;9.210;2023-06-24T00:49:08;17.00;53.50
32139;DHT22;18644;48.700;9.210;2023-06-24T00:51:35;17.00;53.60
32139;DHT22;18644;48.700;9.210;2023-06-24T00:54:07;17.00;53.70
32139;DHT22;18644;48.700;9.210;2023-06-24T00:56:36;16.90;53.60
32139;DHT22;18644;48.700;9.210;2023-06-24T00:59:04;16.90;53.70
32139;DHT22;18644;48.700;9.210;2023-06-24T01:01:34;16.80;53.80
32139;DHT22;18644;48.700;9.210;2023-06-24T01:04:02;16.80;53.80
32139;DHT22;18644;48.700;9.210;2023-06-24T01:06:30;16.80;53.80
32139;DHT22;18644;48.700;9.210;2023-06-24T01:08:58;16.80;53.80
32139;DHT22;18644;48.700;9.210;2023-06-24T01:11:27;16.70;53.70
32139;DHT22;18644;48.700;9.210;2023-06-24T01:13:56;16.70;53.80
32139;DHT22;18644;48.700;9.210;2023-06-24T01:16:29;16.60;53.90
32139;DHT22;18644;48.700;9.210;2023-06-24T01:19:07;16.60;54.30
32139;DHT22;18644;48.700;9.210;2023-06-24T01:21:53;16.60;54.30
32139;DHT22;18644;48.700;9.210;2023-06-24T01:24:33;16.50;54.40
32139;DHT22;18644;48.700;9.210;2023-06-24T01:27:40;16.60;54.50
32139;DHT22;18644;48.700;9.210;2023-06-24T01:30:41;16.50;54.30
32139;DHT22;18644;48.700;9.210;2023-06-24T01:33:24;16.40;54.40
32139;DHT22;18644;48.700;9.210;2023-06-24T01:35:56;16.40;54.30
32139;DHT22;18644;48.700;9.210;2023-06-24T01:38:27;16.40;54.40
32139;DHT22;18644;48.700;9.210;2023-06-24T01:40:59;16.30;54.50
32139;DHT22;18644;48.700;9.210;2023-06-24T01:43:31;16.30;54.60
32139;DHT22;18644;48.700;9.210;2023-06-24T01:45:59;16.30;54.70
32139;DHT22;18644;48.700;9.210;2023-06-24T01:48:28;16.20;54.90
32139;DHT22;18644;48.700;9.210;2023-06-24T01:51:00;16.20;55.00
32139;DHT22;18644;48.700;9.210;2023-06-24T01:53:34;16.20;55.00
32139;DHT22;18644;48.700;9.210;2023-06-24T01:56:06;16.20;55.00
32139;DHT22;18644;48.700;9.210;2023-06-24T01:58:35;16.10;54.90
32139;DHT22;18644;48.700;9.210;2023-06-24T02:01:03;16.10;54.90
32139;DHT22;18644;48.700;9.210;2023-06-24T02:03:33;16.00;54.80
32139;DHT22;18644;48.700;9.210;2023-06-24T02:06:02;16.00;54.90
32139;DHT22;18644;48.700;9.210;2023-06-24T02:08:31;16.00;55.00
32139;DHT22;18644;48.700;9.210;2023-06-24T02:11:01;16.00;55.20
32139;DHT22;18644;48.700;9.210;2023-06-24T02:13:29;15.90;55.20
32139;DHT22;18644;48.700;9.210;2023-06-24T02:15:59;15.90;55.40
32139;DHT22;18644;48.700;9.210;2023-06-24T02:18:28;15.80;56.00
32139;DHT22;18644;48.700;9.210;2023-06-24T02:20:57;15.80;55.30
32139;DHT22;18644;48.700;9.210;2023-06-24T02:23:26;15.80;55.30
32139;DHT22;18644;48.700;9.210;2023-06-24T02:25:53;15.70;55.30
32139;DHT22;18644;48.700;9.210;2023-06-24T02:28:22;15.70;55.40
32139;DHT22;18644;48.700;9.210;2023-06-24T02:30:49;15.70;55.50
32139;DHT22;18644;48.700;9.210;2023-06-24T02:33:17;15.60;55.60
32139;DHT22;18644;48.700;9.210;2023-06-24T02:35:44;15.60;55.70
32139;DHT22;18644;48.700;9.210;2023-06-24T02:38:13;15.60;55.70
32139;DHT22;18644;48.700;9.210;2023-06-24T02:40:43;15.50;55.80
32139;DHT22;18644;48.700;9.210;2023-06-24T02:43:11;15.50;56.00
32139;DHT22;18644;48.700;9.210;2023-06-24T02:45:38;15.50;55.90
32139;DHT22;18644;48.700;9.210;2023-06-24T02:48:06;15.40;56.00
32139;DHT22;18644;48.700;9.210;2023-06-24T02:50:37;15.40;56.10
32139;DHT22;18644;48.700;9.210;2023-06-24T02:53:05;15.40;56.20
32139;DHT22;18644;48.700;9.210;2023-06-24T02:55:35;15.40;56.30
32139;DHT22;18644;48.700;9.210;2023-06-24T02:58:03;15.30;56.40
32139;DHT22;18644;48.700;9.210;2023-06-24T03:00:33;15.30;56.60
32139;DHT22;18644;48.700;9.210;2023-06-24T03:03:01;15.30;56.50
32139;DHT22;18644;48.700;9.210;2023-06-24T03:05:29;15.30;56.50
32139;DHT22;18644;48.700;9.210;2023-06-24T03:07:57;15.30;56.50
32139;DHT22;18644;48.700;9.210;2023-06-24T03:10:26;15.30;56.60
32139;DHT22;18644;48.700;9.210;2023-06-24T03:12:55;15.20;56.50
32139;DHT22;18644;48.700;9.210;2023-06-24T03:15:22;15.20;56.60
32139;DHT22;18644;48.700;9.210;2023-06-24T03:17:50;15.20;56.70
32139;DHT22;18644;48.700;9.210;2023-06-24T03:20:18;15.10;56.80
32139;DHT22;18644;48.700;9.210;2023-06-24T03:22:45;15.20;56.90
32139;DHT22;18644;48.700;9.210;2023-06-24T03:25:12;15.10;56.90
32139;DHT22;18644;48.700;9.210;2023-06-24T03:27:39;15.10;57.00
32139;DHT22;18644;48.700;9.210;2023-06-24T03:30:11;15.10;57.10
32139;DHT22;18644;48.700;9.210;2023-06-24T03:32:40;15.10;57.20
32139;DHT22;18644;48.700;9.210;2023-06-24T03:35:12;15.10;57.10
32139;DHT22;18644;48.700;9.210;2023-06-24T03:37:40;15.00;57.20
32139;DHT22;18644;48.700;9.210;2023-06-24T03:40:08;15.10;57.30
32139;DHT22;18644;48.700;9.210;2023-06-24T03:42:35;15.00;57.30
32139;DHT22;18644;48.700;9.210;2023-06-24T03:45:03;15.00;57.40
32139;DHT22;18644;48.700;9.210;2023-06-24T03:47:32;15.00;57.50
32139;DHT22;18644;48.700;9.210;2023-06-24T03:49:59;15.00;57.60
32139;DHT22;18644;48.700;9.210;2023-06-24T03:52:26;15.00;57.70
32139;DHT22;18644;48.700;9.210;2023-06-24T03:54:53;15.00;57.80
32139;DHT22;18644;48.700;9.210;2023-06-24T03:57:20;15.00;58.10
32139;DHT22;18644;48.700;9.210;2023-06-24T03:59:48;15.00;58.20
32139;DHT22;18644;48.700;9.210;2023-06-24T04:02:15;15.10;58.50
32139;DHT22;18644;48.700;9.210;2023-06-24T04:04:44;15.10;58.60
32139;DHT22;18644;48.700;9.210;2023-06-24T04:07:16;15.20;58.80
32139;DHT22;18644;48.700;9.210;2023-06-24T04:09:54;15.30;58.90
32139;DHT22;18644;48.700;9.210;2023-06-24T04:12:22;15.30;58.90
32139;DHT22;18644;48.700;9.210;2023-06-24T04:14:50;15.30;59.00
32139;DHT22;18644;48.700;9.210;2023-06-24T04:17:16;15.40;59.10
32139;DHT22;18644;48.700;9.210;2023-06-24T04:19:45;15.40;59.80
32139;DHT22;18644;48.700;9.210;2023-06-24T04:22:12;15.50;59.40
32139;DHT22;18644;48.700;9.210;2023-06-24T04:24:39;15.50;59.50
32139;DHT22;18644;48.700;9.210;2023-06-24T04:27:07;15.60;59.60
32139;DHT22;18644;48.700;9.210;2023-06-24T04:29:35;15.60;59.80
32139;DHT22;18644;48.700;9.210;2023-06-24T04:32:02;15.70;60.00
32139;DHT22;18644;48.700;9.210;2023-06-24T04:34:30;15.70;60.10
32139;DHT22;18644;48.700;9.210;2023-06-24T04:36:59;15.80;60.20
32139;DHT22;18644;48.700;9.210;2023-06-24T04:39:26;15.90;60.50
32139;DHT22;18644;48.700;9.210;2023-06-24T04:41:53;16.00;60.80
32139;DHT22;18644;48.700;9.210;2023-06-24T04:44:20;16.00;60.90
32139;DHT22;18644;48.700;9.210;2023-06-24T04:46:48;16.10;61.00
32139;DHT22;18644;48.700;9.210;2023-06-24T04:49:17;16.20;61.20
32139;DHT22;18644;48.700;9.210;2023-06-24T04:51:44;16.30;61.20
32139;DHT22;18644;48.700;9.210;2023-06-24T04:54:12;16.40;61.20
32139;DHT22;18644;48.700;9.210;2023-06-24T04:56:40;16.50;61.10
32139;DHT22;18644;48.700;9.210;2023-06-24T04:59:08;16.70;61.10
32139;DHT22;18644;48.700;9.210;2023-06-24T05:01:35;16.80;60.90
32139;DHT22;18644;48.700;9.210;2023-06-24T05:04:03;16.80;60.70
32139;DHT22;18644;48.700;9.210;2023-06-24T05:06:30;17.00;60.60
32139;DHT22;18644;48.700;9.210;2023-06-24T05:08:57;17.00;60.50
32139;DHT22;18644;48.700;9.210;2023-06-24T05:11:25;17.20;60.50
32139;DHT22;18644;48.700;9.210;2023-06-24T05:13:52;17.30;60.60
32139;DHT22;18644;48.700;9.210;2023-06-24T05:16:19;17.40;60.60
32139;DHT22;18644;48.700;9.210;2023-06-24T05:18:50;17.50;60.70
32139;DHT22;18644;48.700;9.210;2023-06-24T05:21:17;17.50;60.60
32139;DHT22;18644;48.700;9.210;2023-06-24T05:23:44;17.60;60.60
32139;DHT22;18644;48.700;9.210;2023-06-24T05:26:11;17.70;60.50
32139;DHT22;18644;48.700;9.210;2023-06-24T05:28:39;17.90;60.60
32139;DHT22;18644;48.700;9.210;2023-06-24T05:31:06;18.00;60.60
32139;DHT22;18644;48.700;9.210;2023-06-24T05:33:35;18.10;60.60
32139;DHT22;18644;48.700;9.210;2023-06-24T05:36:03;18.20;60.60
32139;DHT22;18644;48.700;9.210;2023-06-24T05:38:30;18.30;60.60
32139;DHT22;18644;48.700;9.210;2023-06-24T05:40:57;18.40;60.50
32139;DHT22;18644;48.700;9.210;2023-06-24T05:43:26;18.50;60.20
32139;DHT22;18644;48.700;9.210;2023-06-24T05:45:55;18.60;60.20
32139;DHT22;18644;48.700;9.210;2023-06-24T05:48:22;18.70;60.30
32139;DHT22;18644;48.700;9.210;2023-06-24T05:50:49;18.80;60.20
32139;DHT22;18644;48.700;9.210;2023-06-24T05:53:16;19.00;60.20
32139;DHT22;18644;48.700;9.210;2023-06-24T05:55:43;19.00;60.00
32139;DHT22;18644;48.700;9.210;2023-06-24T05:58:12;19.20;59.90
32139;DHT22;18644;48.700;9.210;2023-06-24T06:00:39;19.30;59.80
32139;DHT22;18644;48.700;9.210;2023-06-24T06:03:08;19.40;59.70
32139;DHT22;18644;48.700;9.210;2023-06-24T06:05:37;19.50;60.30
32139;DHT22;18644;48.700;9.210;2023-06-24T06:08:04;19.60;59.70
32139;DHT22;18644;48.700;9.210;2023-06-24T06:10:32;19.70;59.50
32139;DHT22;18644;48.700;9.210;2023-06-24T06:12:59;19.80;59.30
32139;DHT22;18644;48.700;9.210;2023-06-24T06:15:26;19.90;59.10
32139;DHT22;18644;48.700;9.210;2023-06-24T06:17:53;20.00;59.00
32139;DHT22;18644;48.700;9.210;2023-06-24T06:20:21;20.10;59.50
32139;DHT22;18644;48.700;9.210;2023-06-24T06:22:48;20.20;58.80
32139;DHT22;18644;48.700;9.210;2023-06-24T06:25:16;20.30;58.60
32139;DHT22;18644;48.700;9.210;2023-06-24T06:27:43;20.40;58.50
32139;DHT22;18644;48.700;9.210;2023-06-24T06:30:12;20.50;58.50
32139;DHT22;18644;48.700;9.210;2023-06-24T06:32:40;20.70;58.30
32139;DHT22;18644;48.700;9.210;2023-06-24T06:35:07;20.80;58.10
32139;DHT22;18644;48.700;9.210;2023-06-24T06:37:36;20.90;57.80
32139;DHT22;18644;48.700;9.210;2023-06-24T06:40:03;21.10;57.70
32139;DHT22;18644;48.700;9.210;2023-06-24T06:42:32;21.20;57.60
32139;DHT22;18644;48.700;9.210;2023-06-24T06:44:59;21.30;57.20
32139;DHT22;18644;48.700;9.210;2023-06-24T06:47:26;21.50;57.10
32139;DHT22;18644;48.700;9.210;2023-06-24T06:49:53;21.60;57.00
32139;DHT22;18644;48.700;9.210;2023-06-24T06:52:21;21.70;56.80
32139;DHT22;18644;48.700;9.210;2023-06-24T06:54:50;21.90;56.60
32139;DHT22;18644;48.700;9.210;2023-06-24T06:57:17;22.10;56.30
32139;DHT22;18644;48.700;9.210;2023-06-24T06:59:44;22.30;56.20
32139;DHT22;18644;48.700;9.210;2023-06-24T07:02:11;22.40;55.90
32139;DHT22;18644;48.700;9.210;2023-06-24T07:04:38;22.60;55.50
32139;DHT22;18644;48.700;9.210;2023-06-24T07:07:05;22.70;55.10
32139;DHT22;18644;48.700;9.210;2023-06-24T07:09:32;22.90;54.80
32139;DHT22;18644;48.700;9.210;2023-06-24T07:12:01;23.00;54.70
32139;DHT22;18644;48.700;9.210;2023-06-24T07:14:28;23.20;54.70
32139;DHT22;18644;48.700;9.210;2023-06-24T07:16:55;23.30;54.50
32139;DHT22;18644;48.700;9.210;2023-06-24T07:19:22;23.50;54.10
32139;DHT22;18644;48.700;9.210;2023-06-24T07:21:49;23.70;53.80
32139;DHT22;18644;48.700;9.210;2023-06-24T07:24:16;23.80;53.50
32139;DHT22;18644;48.700;9.210;2023-06-24T07:26:43;24.00;53.30
32139;DHT22;18644;48.700;9.210;2023-06-24T07:29:12;24.10;53.00
32139;DHT22;18644;48.700;9.210;2023-06-24T07:31:38;24.30;52.50
32139;DHT22;18644;48.700;9.210;2023-06-24T07:34:05;24.40;52.10
32139;DHT22;18644;48.700;9.210;2023-06-24T07:36:32;24.50;51.80
32139;DHT22;18644;48.700;9.210;2023-06-24T07:38:59;24.60;51.80
32139;DHT22;18644;48.700;9.210;2023-06-24T07:41:26;24.80;51.70
32139;DHT22;18644;48.700;9.210;2023-06-24T07:43:53;24.90;51.30
32139;DHT22;18644;48.700;9.210;2023-06-24T07:46:21;25.10;51.20
32139;DHT22;18644;48.700;9.210;2023-06-24T07:48:48;25.20;51.20
32139;DHT22;18644;48.700;9.210;2023-06-24T07:51:15;25.40;51.00
32139;DHT22;18644;48.700;9.210;2023-06-24T07:53:43;25.50;50.50
32139;DHT22;18644;48.700;9.210;2023-06-24T07:56:10;25.60;50.30
32139;DHT22;18644;48.700;9.210;2023-06-24T07:58:37;25.80;50.20
32139;DHT22;18644;48.700;9.210;2023-06-24T08:01:04;26.00;49.70
32139;DHT22;18644;48.700;9.210;2023-06-24T08:03:33;26.10;49.20
32139;DHT22;18644;48.700;9.210;2023-06-24T08:06:02;26.20;49.00
32139;DHT22;18644;48.700;9.210;2023-06-24T08:08:29;26.30;49.10
32139;DHT22;18644;48.700;9.210;2023-06-24T08:10:56;26.40;49.00
32139;DHT22;18644;48.700;9.210;2023-06-24T08:13:23;26.60;48.90
32139;DHT22;18644;48.700;9.210;2023-06-24T08:15:49;26.70;48.80
32139;DHT22;18644;48.700;9.210;2023-06-24T08:18:16;26.80;48.40
32139;DHT22;18644;48.700;9.210;2023-06-24T08:20:44;26.90;48.10
32139;DHT22;18644;48.700;9.210;2023-06-24T08:23:11;27.10;48.10
32139;DHT22;18644;48.700;9.210;2023-06-24T08:25:38;27.20;47.90
32139;DHT22;18644;48.700;9.210;2023-06-24T08:28:05;27.30;47.40
32139;DHT22;18644;48.700;9.210;2023-06-24T08:30:32;27.40;47.00
32139;DHT22;18644;48.700;9.210;2023-06-24T08:32:59;27.50;46.60
32139;DHT22;18644;48.700;9.210;2023-06-24T08:35:28;27.60;46.70
32139;DHT22;18644;48.700;9.210;2023-06-24T08:37:56;27.70;46.50
32139;DHT22;18644;48.700;9.210;2023-06-24T08:40:23;27.90;46.50
32139;DHT22;18644;48.700;9.210;2023-06-24T08:42:50;28.00;46.60
32139;DHT22;18644;48.700;9.210;2023-06-24T08:45:17;28.10;46.40
32139;DHT22;18644;48.700;9.210;2023-06-24T08:47:46;28.20;45.50
32139;DHT22;18644;48.700;9.210;2023-06-24T08:50:14;28.20;45.00
32139;DHT22;18644;48.700;9.210;2023-06-24T08:52:45;28.30;45.00
32139;DHT22;18644;48.700;9.210;2023-06-24T08:55:22;28.40;45.10
32139;DHT22;18644;48.700;9.210;2023-06-24T08:57:49;28.50;45.00
32139;DHT22;18644;48.700;9.210;2023-06-24T09:00:17;28.50;44.80
32139;DHT22;18644;48.700;9.210;2023-06-24T09:02:44;28.60;44.40
32139;DHT22;18644;48.700;9.210;2023-06-24T09:05:11;28.70;44.70
32139;DHT22;18644;48.700;9.210;2023-06-24T09:07:39;28.80;44.40
32139;DHT22;18644;48.700;9.210;2023-06-24T09:10:06;28.90;44.30
32139;DHT22;18644;48.700;9.210;2023-06-24T09:12:35;29.00;43.80
32139;DHT22;18644;48.700;9.210;2023-06-24T09:15:03;29.10;43.70
32139;DHT22;18644;48.700;9.210;2023-06-24T09:17:30;29.20;43.30
32139;DHT22;18644;48.700;9.210;2023-06-24T09:20:04;29.30;42.90
32139;DHT22;18644;48.700;9.210;2023-06-24T09:22:32;29.50;42.20
32139;DHT22;18644;48.700;9.210;2023-06-24T09:25:00;29.60;42.10
32139;DHT22;18644;48.700;9.210;2023-06-24T09:27:31;29.70;42.20
32139;DHT22;18644;48.700;9.210;2023-06-24T09:30:00;29.80;41.80
32139;DHT22;18644;48.700;9.210;2023-06-24T09:32:45;29.90;41.70
32139;DHT22;18644;48.700;9.210;2023-06-24T09:35:12;30.00;41.80
32139;DHT22;18644;48.700;9.210;2023-06-24T09:37:39;30.10;41.40
32139;DHT22;18644;48.700;9.210;2023-06-24T09:40:08;30.20;41.20
32139;DHT22;18644;48.700;9.210;2023-06-24T09:42:36;30.30;41.00
32139;DHT22;18644;48.700;9.210;2023-06-24T09:45:08;30.30;40.80
32139;DHT22;18644;48.700;9.210;2023-06-24T09:47:36;30.50;40.50
32139;DHT22;18644;48.700;9.210;2023-06-24T09:50:03;30.50;40.70
32139;DHT22;18644;48.700;9.210;2023-06-24T09:52:31;30.60;39.90
32139;DHT22;18644;48.700;9.210;2023-06-24T09:55:01;30.70;40.00
32139;DHT22;18644;48.700;9.210;2023-06-24T09:57:31;30.80;39.90
32139;DHT22;18644;48.700;9.210;2023-06-24T09:59:59;30.90;39.60
32139;DHT22;18644;48.700;9.210;2023-06-24T10:02:29;30.90;39.20
32139;DHT22;18644;48.700;9.210;2023-06-24T10:04:57;31.00;38.50
32139;DHT22;18644;48.700;9.210;2023-06-24T10:07:26;31.10;38.90
32139;DHT22;18644;48.700;9.210;2023-06-24T10:09:53;31.20;38.70
32139;DHT22;18644;48.700;9.210;2023-06-24T10:12:20;31.20;38.10
32139;DHT22;18644;48.700;9.210;2023-06-24T10:14:47;31.20;37.50
32139;DHT22;18644;48.700;9.210;2023-06-24T10:17:14;31.30;37.00
32139;DHT22;18644;48.700;9.210;2023-06-24T10:19:42;31.30;37.30
32139;DHT22;18644;48.700;9.210;2023-06-24T10:22:11;31.30;37.30
32139;DHT22;18644;48.700;9.210;2023-06-24T10:24:39;31.40;37.70
32139;DHT22;18644;48.700;9.210;2023-06-24T10:27:08;31.40;37.50
32139;DHT22;18644;48.700;9.210;2023-06-24T10:29:37;31.50;36.80
32139;DHT22;18644;48.700;9.210;2023-06-24T10:32:05;31.60;36.40
32139;DHT22;18644;48.700;9.210;2023-06-24T10:34:34;31.60;36.50
32139;DHT22;18644;48.700;9.210;2023-06-24T10:37:11;31.70;36.60
32139;DHT22;18644;48.700;9.210;2023-06-24T10:39:42;31.70;36.00
32139;DHT22;18644;48.700;9.210;2023-06-24T10:42:32;31.80;36.00
32139;DHT22;18644;48.700;9.210;2023-06-24T10:45:19;31.90;34.00
32139;DHT22;18644;48.700;9.210;2023-06-24T10:47:48;31.90;35.00
32139;DHT22;18644;48.700;9.210;2023-06-24T10:50:19;32.00;35.40
32139;DHT22;18644;48.700;9.210;2023-06-24T10:52:49;32.00;35.30
32139;DHT22;18644;48.700;9.210;2023-06-24T10:55:19;32.10;36.10
32139;DHT22;18644;48.700;9.210;2023-06-24T10:57:46;32.20;36.00
32139;DHT22;18644;48.700;9.210;2023-06-24T11:00:14;32.30;35.80
32139;DHT22;18644;48.700;9.210;2023-06-24T11:02:41;32.40;35.30
32139;DHT22;18644;48.700;9.210;2023-06-24T11:05:08;32.50;35.10
32139;DHT22;18644;48.700;9.210;2023-06-24T11:07:36;32.60;35.10
32139;DHT22;18644;48.700;9.210;2023-06-24T11:10:07;32.60;35.00
32139;DHT22;18644;48.700;9.210;2023-06-24T11:12:37;32.70;35.10
32139;DHT22;18644;48.700;9.210;2023-06-24T11:15:06;32.80;34.70
32139;DHT22;18644;48.700;9.210;2023-06-24T11:17:34;32.90;34.20
32139;DHT22;18644;48.700;9.210;2023-06-24T11:20:06;32.90;33.60
32139;DHT22;18644;48.700;9.210;2023-06-24T11:22:34;32.90;32.60
32139;DHT22;18644;48.700;9.210;2023-06-24T11:25:01;32.90;33.00
32139;DHT22;18644;48.700;9.210;2023-06-24T11:27:31;32.80;33.20
32139;DHT22;18644;48.700;9.210;2023-06-24T11:29:59;32.60;32.90
32139;DHT22;18644;48.700;9.210;2023-06-24T11:32:35;32.60;32.90
32139;DHT22;18644;48.700;9.210;2023-06-24T11:35:04;32.50;33.10
32139;DHT22;18644;48.700;9.210;2023-06-24T11:37:32;32.40;32.90
32139;DHT22;18644;48.700;9.210;2023-06-24T11:40:03;32.30;32.80
32139;DHT22;18644;48.700;9.210;2023-06-24T11:42:35;32.30;32.70
32139;DHT22;18644;48.700;9.210;2023-06-24T11:45:03;32.10;32.40
32139;DHT22;18644;48.700;9.210;2023-06-24T11:47:32;32.00;32.30
32139;DHT22;18644;48.700;9.210;2023-06-24T11:50:00;31.90;32.10
32139;DHT22;18644;48.700;9.210;2023-06-24T11:52:41;31.80;32.70
32139;DHT22;18644;48.700;9.210;2023-06-24T11:55:16;31.90;32.50
32139;DHT22;18644;48.700;9.210;2023-06-24T11:57:49;31.90;32.10
32139;DHT22;18644;48.700;9.210;2023-06-24T12:00:19;31.90;32.00
32139;DHT22;18644;48.700;9.210;2023-06-24T12:02:49;32.00;31.90
32139;DHT22;18644;48.700;9.210;2023-06-24T12:05:20;32.00;31.70
32139;DHT22;18644;48.700;9.210;2023-06-24T12:07:54;31.90;32.70
32139;DHT22;18644;48.700;9.210;2023-06-24T12:10:22;31.90;33.00
32139;DHT22;18644;48.700;9.210;2023-06-24T12:12:51;32.00;33.30
32139;DHT22;18644;48.700;9.210;2023-06-24T12:15:18;32.10;32.80
32139;DHT22;18644;48.700;9.210;2023-06-24T12:17:45;32.30;32.70
32139;DHT22;18644;48.700;9.210;2023-06-24T12:20:13;32.30;32.50
32139;DHT22;18644;48.700;9.210;2023-06-24T12:22:41;32.40;32.30
32139;DHT22;18644;48.700;9.210;2023-06-24T12:25:09;32.40;33.10
32139;DHT22;18644;48.700;9.210;2023-06-24T12:27:36;32.60;33.10
32139;DHT22;18644;48.700;9.210;2023-06-24T12:30:06;32.70;32.20
32139;DHT22;18644;48.700;9.210;2023-06-24T12:32:34;32.90;31.60
32139;DHT22;18644;48.700;9.210;2023-06-24T12:35:01;32.90;32.20
32139;DHT22;18644;48.700;9.210;2023-06-24T12:37:30;33.10;32.40
32139;DHT22;18644;48.700;9.210;2023-06-24T12:39:57;33.20;32.00
32139;DHT22;18644;48.700;9.210;2023-06-24T12:42:25;33.40;32.10
32139;DHT22;18644;48.700;9.210;2023-06-24T12:44:52;33.50;31.70
32139;DHT22;18644;48.700;9.210;2023-06-24T12:47:20;33.60;31.10
32139;DHT22;18644;48.700;9.210;2023-06-24T12:49:47;33.80;30.80
32139;DHT22;18644;48.700;9.210;2023-06-24T12:52:14;33.90;30.90
32139;DHT22;18644;48.700;9.210;2023-06-24T12:54:41;33.90;31.10
32139;DHT22;18644;48.700;9.210;2023-06-24T12:57:08;34.00;31.30
32139;DHT22;18644;48.700;9.210;2023-06-24T12:59:35;34.10;31.20
32139;DHT22;18644;48.700;9.210;2023-06-24T13:02:02;34.20;31.90
32139;DHT22;18644;48.700;9.210;2023-06-24T13:04:30;34.30;30.80
32139;DHT22;18644;48.700;9.210;2023-06-24T13:06:57;34.50;30.10
32139;DHT22;18644;48.700;9.210;2023-06-24T13:09:24;34.50;29.70
32139;DHT22;18644;48.700;9.210;2023-06-24T13:11:51;34.70;29.30
32139;DHT22;18644;48.700;9.210;2023-06-24T13:14:18;34.60;29.20
32139;DHT22;18644;48.700;9.210;2023-06-24T13:16:44;34.70;29.10
32139;DHT22;18644;48.700;9.210;2023-06-24T13:19:11;34.70;29.20
32139;DHT22;18644;48.700;9.210;2023-06-24T13:21:40;34.80;29.20
32139;DHT22;18644;48.700;9.210;2023-06-24T13:24:07;34.90;29.20
32139;DHT22;18644;48.700;9.210;2023-06-24T13:26:34;34.90;28.90
32139;DHT22;18644;48.700;9.210;2023-06-24T13:29:01;35.00;29.00
32139;DHT22;18644;48.700;9.210;2023-06-24T13:31:28;35.00;28.60
32139;DHT22;18644;48.700;9.210;2023-06-24T13:33:55;35.00;28.70
32139;DHT22;18644;48.700;9.210;2023-06-24T13:36:32;35.00;28.80
32139;DHT22;18644;48.700;9.210;2023-06-24T13:39:02;35.10;28.90
32139;DHT22;18644;48.700;9.210;2023-06-24T13:41:29;35.20;28.70
32139;DHT22;18644;48.700;9.210;2023-06-24T13:43:58;35.20;29.00
32139;DHT22;18644;48.700;9.210;2023-06-24T13:46:26;35.30;28.90
32139;DHT22;18644;48.700;9.210;2023-06-24T13:48:53;35.40;28.90
32139;DHT22;18644;48.700;9.210;2023-06-24T13:51:20;35.50;28.90
32139;DHT22;18644;48.700;9.210;2023-06-24T13:53:48;35.50;28.40
32139;DHT22;18644;48.700;9.210;2023-06-24T13:56:17;35.60;28.20
32139;DHT22;18644;48.700;9.210;2023-06-24T13:58:44;35.50;27.90
32139;DHT22;18644;48.700;9.210;2023-06-24T14:01:11;35.60;28.10
32139;DHT22;18644;48.700;9.210;2023-06-24T14:03:39;35.60;28.00
32139;DHT22;18644;48.700;9.210;2023-06-24T14:06:05;35.60;28.30
32139;DHT22;18644;48.700;9.210;2023-06-24T14:08:33;35.70;28.40
32139;DHT22;18644;48.700;9.210;2023-06-24T14:11:00;35.70;28.50
32139;DHT22;18644;48.700;9.210;2023-06-24T14:13:29;35.80;28.50
32139;DHT22;18644;48.700;9.210;2023-06-24T14:15:56;35.80;28.00
32139;DHT22;18644;48.700;9.210;2023-06-24T14:18:23;35.90;28.00
32139;DHT22;18644;48.700;9.210;2023-06-24T14:20:51;36.00;28.10
32139;DHT22;18644;48.700;9.210;2023-06-24T14:23:18;36.00;28.10
32139;DHT22;18644;48.700;9.210;2023-06-24T14:25:45;36.10;27.50
32139;DHT22;18644;48.700;9.210;2023-06-24T14:28:12;36.10;27.60
32139;DHT22;18644;48.700;9.210;2023-06-24T14:30:40;36.10;27.30
32139;DHT22;18644;48.700;9.210;2023-06-24T14:33:08;36.20;27.20
32139;DHT22;18644;48.700;9.210;2023-06-24T14:35:35;36.30;27.60
32139;DHT22;18644;48.700;9.210;2023-06-24T14:38:02;36.30;27.70
32139;DHT22;18644;48.700;9.210;2023-06-24T14:40:29;36.40;27.30
32139;DHT22;18644;48.700;9.210;2023-06-24T14:42:55;36.40;26.50
32139;DHT22;18644;48.700;9.210;2023-06-24T14:45:22;36.40;26.60
32139;DHT22;18644;48.700;9.210;2023-06-24T14:47:51;36.30;26.20
32139;DHT22;18644;48.700;9.210;2023-06-24T14:50:18;36.20;26.10
32139;DHT22;18644;48.700;9.210;2023-06-24T14:52:45;36.00;26.40
32139;DHT22;18644;48.700;9.210;2023-06-24T14:55:12;35.90;26.10
32139;DHT22;18644;48.700;9.210;2023-06-24T14:57:38;35.70;26.50
32139;DHT22;18644;48.700;9.210;2023-06-24T15:00:07;35.70;26.70
32139;DHT22;18644;48.700;9.210;2023-06-24T15:02:34;35.50;27.00
32139;DHT22;18644;48.700;9.210;2023-06-24T15:05:03;35.40;27.60
32139;DHT22;18644;48.700;9.210;2023-06-24T15:07:30;35.30;27.00
32139;DHT22;18644;48.700;9.210;2023-06-24T15:09:58;35.30;27.20
32139;DHT22;18644;48.700;9.210;2023-06-24T15:12:24;35.30;27.10
32139;DHT22;18644;48.700;9.210;2023-06-24T15:14:51;35.30;27.20
32139;DHT22;18644;48.700;9.210;2023-06-24T15:17:18;35.30;27.00
32139;DHT22;18644;48.700;9.210;2023-06-24T15:19:45;35.40;27.40
32139;DHT22;18644;48.700;9.210;2023-06-24T15:22:13;35.40;27.20
32139;DHT22;18644;48.700;9.210;2023-06-24T15:24:41;35.40;27.10
32139;DHT22;18644;48.700;9.210;2023-06-24T15:27:10;35.40;27.20
32139;DHT22;18644;48.700;9.210;2023-06-24T15:29:36;35.40;27.00
32139;DHT22;18644;48.700;9.210;2023-06-24T15:32:04;35.40;26.90
32139;DHT22;18644;48.700;9.210;2023-06-24T15:34:31;35.40;26.60
32139;DHT22;18644;48.700;9.210;2023-06-24T15:36:58;35.40;26.40
32139;DHT22;18644;48.700;9.210;2023-06-24T15:39:26;35.40;26.40